createdAt,value
2022-12-28T00:02:19.140Z,37.17
2022-12-28T00:04:47.104Z,37.70
2022-12-28T00:07:14.327Z,38.75
2022-12-28T00:09:41.568Z,39.07
2022-12-28T00:12:09.035Z,38.72
2022-12-28T00:14:36.328Z,38.66
2022-12-28T00:17:03.504Z,38.78
2022-12-28T00:19:30.887Z,38.43
2022-12-28T00:21:58.042Z,38.30
2022-12-28T00:24:25.425Z,38.16
2022-12-28T00:26:53.024Z,38.27
2022-12-28T00:29:20.245Z,37.80
2022-12-28T00:31:47.465Z,37.83
2022-12-28T00:34:15.040Z,38.62
2022-12-28T00:37:09.633Z,38.55
2022-12-28T00:39:29.753Z,38.83
2022-12-28T00:41:56.949Z,39.07
2022-12-28T00:44:24.105Z,38.95
2022-12-28T00:46:51.553Z,39.40
2022-12-28T00:49:18.729Z,39.45
2022-12-28T00:51:46.168Z,39.39
2022-12-28T00:54:13.868Z,39.48
2022-12-28T00:56:43.002Z,39.72
2022-12-28T00:59:10.267Z,39.65
2022-12-28T01:01:37.886Z,39.96
2022-12-28T01:04:05.262Z,40.00
2022-12-28T01:06:32.438Z,39.83
2022-12-28T01:09:00.024Z,39.53
2022-12-28T01:11:28.363Z,39.31
2022-12-28T01:13:56.704Z,39.21
2022-12-28T01:16:25.397Z,39.00
2022-12-28T01:18:53.630Z,38.68
2022-12-28T01:21:22.032Z,38.59
2022-12-28T01:23:49.675Z,38.60
2022-12-28T01:26:16.873Z,38.31
2022-12-28T01:28:45.289Z,37.56
2022-12-28T01:31:13.712Z,37.61
2022-12-28T01:33:41.231Z,38.04
2022-12-28T01:36:08.972Z,38.63
2022-12-28T01:38:37.931Z,38.50
2022-12-28T01:41:12.251Z,38.00
2022-12-28T01:43:41.171Z,38.49
2022-12-28T01:46:13.307Z,38.63
2022-12-28T01:48:43.029Z,39.48
2022-12-28T01:51:10.196Z,39.06
2022-12-28T01:53:37.351Z,39.00
2022-12-28T01:56:04.918Z,38.99
2022-12-28T01:58:32.087Z,39.12
2022-12-28T02:00:59.400Z,39.37
2022-12-28T02:03:27.765Z,39.56
2022-12-28T02:05:56.571Z,39.44
2022-12-28T02:08:32.553Z,39.33
2022-12-28T02:11:00.284Z,39.05
2022-12-28T02:13:27.473Z,39.13
2022-12-28T02:15:57.749Z,38.87
2022-12-28T02:18:25.485Z,38.39
2022-12-28T02:21:14.851Z,38.42
2022-12-28T02:24:05.196Z,38.92
2022-12-28T02:26:32.342Z,39.53
2022-12-28T02:29:08.803Z,39.38
2022-12-28T02:31:43.676Z,39.27
2022-12-28T02:34:22.002Z,39.06
2022-12-28T02:36:55.965Z,39.52
2022-12-28T02:39:27.416Z,39.22
2022-12-28T02:41:54.599Z,39.30
2022-12-28T02:44:40.545Z,38.85
2022-12-28T02:47:29.772Z,38.84
2022-12-28T02:50:09.159Z,38.91
2022-12-28T02:52:36.618Z,39.04
2022-12-28T02:55:31.555Z,39.21
2022-12-28T02:58:12.019Z,38.89
2022-12-28T03:00:58.041Z,38.82
2022-12-28T03:03:39.199Z,39.64
2022-12-28T03:06:42.448Z,40.03
2022-12-28T03:09:28.601Z,38.99
2022-12-28T03:12:00.860Z,39.07
2022-12-28T03:14:29.438Z,39.70
2022-12-28T03:17:16.525Z,39.90
2022-12-28T03:20:06.077Z,39.46
2022-12-28T03:22:52.548Z,39.21
2022-12-28T03:25:40.326Z,39.46
2022-12-28T03:28:27.714Z,39.56
2022-12-28T03:31:06.546Z,39.20
2022-12-28T03:34:07.326Z,38.91
2022-12-28T03:36:35.184Z,38.72
2022-12-28T03:39:08.724Z,38.50
2022-12-28T03:41:36.389Z,38.95
2022-12-28T03:44:07.949Z,39.26
2022-12-28T03:46:44.169Z,38.82
2022-12-28T03:49:11.407Z,38.94
2022-12-28T03:51:39.717Z,38.90
2022-12-28T03:54:08.070Z,39.33
2022-12-28T03:56:35.777Z,39.16
2022-12-28T03:59:04.222Z,39.01
2022-12-28T04:01:32.329Z,39.16
2022-12-28T04:04:00.055Z,38.94
2022-12-28T04:06:27.312Z,38.60
2022-12-28T04:08:54.573Z,38.94
2022-12-28T04:11:26.402Z,38.51
2022-12-28T04:13:53.708Z,38.89
2022-12-28T04:16:21.462Z,39.37
2022-12-28T04:18:49.240Z,38.99
2022-12-28T04:21:16.658Z,38.83
2022-12-28T04:23:44.061Z,38.85
2022-12-28T04:26:12.566Z,39.07
2022-12-28T04:28:40.582Z,39.75
2022-12-28T04:31:11.984Z,40.49
2022-12-28T04:33:41.065Z,40.63
2022-12-28T04:36:12.486Z,40.37
2022-12-28T04:38:40.119Z,40.24
2022-12-28T04:41:07.746Z,39.95
2022-12-28T04:43:35.200Z,40.14
2022-12-28T04:46:04.266Z,40.32
2022-12-28T04:48:31.535Z,40.34
2022-12-28T04:50:58.689Z,40.15
2022-12-28T04:53:26.143Z,39.90
2022-12-28T04:55:53.954Z,40.14
2022-12-28T04:58:21.117Z,39.61
2022-12-28T05:00:48.594Z,39.45
2022-12-28T05:03:17.370Z,39.68
2022-12-28T05:05:44.655Z,39.28
2022-12-28T05:08:12.077Z,39.20
2022-12-28T05:10:39.257Z,39.19
2022-12-28T05:13:06.436Z,39.35
2022-12-28T05:15:33.943Z,38.84
2022-12-28T05:18:01.103Z,38.14
2022-12-28T05:20:28.348Z,38.01
2022-12-28T05:22:55.795Z,38.70
2022-12-28T05:25:23.030Z,38.65
2022-12-28T05:27:50.204Z,38.52
2022-12-28T05:30:17.720Z,38.18
2022-12-28T05:32:44.915Z,38.23
2022-12-28T05:35:12.075Z,38.59
2022-12-28T05:37:39.508Z,38.54
2022-12-28T05:40:06.914Z,38.67
2022-12-28T05:42:35.137Z,37.95
2022-12-28T05:45:02.586Z,37.95
2022-12-28T05:47:29.863Z,38.33
2022-12-28T05:49:57.014Z,38.43
2022-12-28T05:52:24.455Z,38.79
2022-12-28T05:54:51.605Z,38.98
2022-12-28T05:57:18.818Z,38.95
2022-12-28T05:59:46.263Z,38.73
2022-12-28T06:02:13.647Z,38.87
2022-12-28T06:04:41.314Z,38.92
2022-12-28T06:07:08.461Z,38.81
2022-12-28T06:09:35.699Z,38.60
2022-12-28T06:12:04.809Z,38.56
2022-12-28T06:14:32.029Z,38.28
2022-12-28T06:16:59.218Z,38.57
2022-12-28T06:19:26.784Z,38.75
2022-12-28T06:21:54.485Z,38.49
2022-12-28T06:24:21.646Z,38.19
2022-12-28T06:26:51.244Z,38.15
2022-12-28T06:29:18.512Z,38.72
2022-12-28T06:31:51.230Z,38.54
2022-12-28T06:34:18.772Z,38.36
2022-12-28T06:36:46.283Z,38.35
2022-12-28T06:39:14.002Z,38.38
2022-12-28T06:41:41.810Z,38.59
2022-12-28T06:44:09.754Z,38.81
2022-12-28T06:46:36.947Z,38.79
2022-12-28T06:49:04.426Z,38.59
2022-12-28T06:51:32.954Z,38.94
2022-12-28T06:54:00.205Z,39.42
2022-12-28T06:56:31.578Z,39.17
2022-12-28T06:59:03.191Z,38.87
2022-12-28T07:01:35.187Z,38.81
2022-12-28T07:04:03.301Z,38.76
2022-12-28T07:06:30.690Z,39.07
2022-12-28T07:08:59.737Z,39.11
2022-12-28T07:11:27.038Z,39.01
2022-12-28T07:13:54.231Z,38.73
2022-12-28T07:16:22.465Z,38.32
2022-12-28T07:18:49.896Z,38.56
2022-12-28T07:21:18.349Z,38.56
2022-12-28T07:23:47.463Z,38.55
2022-12-28T07:26:15.745Z,38.80
2022-12-28T07:28:44.083Z,38.73
2022-12-28T07:31:12.970Z,38.82
2022-12-28T07:33:41.191Z,38.69
2022-12-28T07:36:09.733Z,38.81
2022-12-28T07:38:37.253Z,39.17
2022-12-28T07:41:08.682Z,39.09
2022-12-28T07:43:35.868Z,39.09
2022-12-28T07:46:04.283Z,39.31
2022-12-28T07:48:31.949Z,39.02
2022-12-28T07:51:04.941Z,39.06
2022-12-28T07:53:32.411Z,39.12
2022-12-28T07:55:59.689Z,39.13
2022-12-28T07:58:26.863Z,38.64
2022-12-28T08:00:54.366Z,39.00
2022-12-28T08:03:21.879Z,38.90
2022-12-28T08:05:49.148Z,38.86
2022-12-28T08:08:16.346Z,39.41
2022-12-28T08:10:43.792Z,38.98
2022-12-28T08:13:11.009Z,39.06
2022-12-28T08:15:38.230Z,38.97
2022-12-28T08:18:05.813Z,38.52
2022-12-28T08:20:33.395Z,38.86
2022-12-28T08:23:03.207Z,39.04
2022-12-28T08:25:30.636Z,39.44
2022-12-28T08:27:59.134Z,39.86
2022-12-28T08:30:26.302Z,39.88
2022-12-28T08:32:53.755Z,40.31
2022-12-28T08:35:22.851Z,40.26
2022-12-28T08:37:50.028Z,40.71
2022-12-28T08:40:17.495Z,41.34
2022-12-28T08:42:44.697Z,41.41
2022-12-28T08:45:12.207Z,40.87
2022-12-28T08:47:39.638Z,39.92
2022-12-28T08:50:07.154Z,41.48
2022-12-28T08:52:34.334Z,40.53
2022-12-28T08:55:01.769Z,40.00
2022-12-28T08:57:28.911Z,39.94
2022-12-28T08:59:56.053Z,37.47
2022-12-28T09:02:23.593Z,38.82
2022-12-28T09:04:50.967Z,39.73
2022-12-28T09:07:18.127Z,40.74
2022-12-28T09:09:45.637Z,38.87
2022-12-28T09:12:12.858Z,37.88
2022-12-28T09:14:40.014Z,38.52
2022-12-28T09:17:07.454Z,37.81
2022-12-28T09:19:34.626Z,39.47
2022-12-28T09:22:01.782Z,38.37
2022-12-28T09:24:29.300Z,37.09
2022-12-28T09:26:56.453Z,37.23
2022-12-28T09:29:23.673Z,38.42
2022-12-28T09:31:51.123Z,38.05
2022-12-28T09:37:06.438Z,37.32
2022-12-28T09:39:33.764Z,36.43
2022-12-28T09:42:22.108Z,37.09
2022-12-28T09:44:49.568Z,37.29
2022-12-28T09:47:21.868Z,38.22
2022-12-28T09:49:58.400Z,37.74
2022-12-28T09:52:27.611Z,36.96
2022-12-28T09:54:55.550Z,35.94
2022-12-28T09:57:22.705Z,36.55
2022-12-28T09:59:50.220Z,36.97
2022-12-28T10:02:19.033Z,37.71
2022-12-28T10:04:49.661Z,36.39
2022-12-28T10:07:16.847Z,36.96
2022-12-28T10:09:44.016Z,36.93
2022-12-28T10:12:18.123Z,37.04
2022-12-28T10:14:48.630Z,37.38
2022-12-28T10:17:16.820Z,38.37
2022-12-28T10:19:47.328Z,37.41
2022-12-28T10:22:19.111Z,36.95
2022-12-28T10:24:46.668Z,36.90
2022-12-28T10:27:29.770Z,36.49
2022-12-28T10:29:57.711Z,36.69
2022-12-28T10:32:24.914Z,37.56
2022-12-28T10:34:55.077Z,37.58
2022-12-28T10:37:22.553Z,36.25
2022-12-28T10:39:50.606Z,36.46
2022-12-28T10:42:20.072Z,36.46
2022-12-28T10:44:48.216Z,36.87
2022-12-28T10:47:25.202Z,37.26
2022-12-28T10:52:39.938Z,37.83
2022-12-28T10:55:39.957Z,37.20
2022-12-28T10:58:32.920Z,37.34
2022-12-28T11:01:03.643Z,36.54
2022-12-28T11:03:32.143Z,36.69
2022-12-28T11:06:22.670Z,36.74
2022-12-28T11:09:04.303Z,35.67
2022-12-28T11:11:31.466Z,36.02
2022-12-28T11:14:00.146Z,35.67
2022-12-28T11:16:27.395Z,35.96
2022-12-28T11:18:54.667Z,36.96
2022-12-28T11:21:22.186Z,36.22
2022-12-28T11:23:49.662Z,36.61
2022-12-28T11:26:18.770Z,37.90
2022-12-28T11:28:46.675Z,39.03
2022-12-28T11:31:40.816Z,37.34
2022-12-28T11:34:13.081Z,37.92
2022-12-28T11:36:40.262Z,36.74
2022-12-28T11:39:26.822Z,37.84
2022-12-28T11:42:36.567Z,38.30
2022-12-28T11:44:42.712Z,36.83
2022-12-28T11:47:16.150Z,37.50
2022-12-28T11:49:44.093Z,36.96
2022-12-28T11:52:17.506Z,37.72
2022-12-28T11:54:55.263Z,37.70
2022-12-28T11:57:42.001Z,38.05
2022-12-28T12:00:24.762Z,37.04
2022-12-28T12:03:01.004Z,38.48
2022-12-28T12:05:37.441Z,38.54
2022-12-28T12:08:17.054Z,37.79
2022-12-28T12:10:44.848Z,38.19
2022-12-28T12:13:27.444Z,37.83
2022-12-28T12:16:04.047Z,40.00
2022-12-28T12:18:32.829Z,40.27
2022-12-28T12:21:03.412Z,39.26
2022-12-28T12:23:41.146Z,39.77
2022-12-28T12:26:22.814Z,40.19
2022-12-28T12:28:53.537Z,39.45
2022-12-28T12:31:37.902Z,38.05
2022-12-28T12:34:31.369Z,37.73
2022-12-28T12:36:58.808Z,38.67
2022-12-28T12:39:45.040Z,38.14
2022-12-28T12:42:19.137Z,40.13
2022-12-28T12:44:51.985Z,37.10
2022-12-28T12:47:42.775Z,36.43
2022-12-28T12:50:12.989Z,37.34
2022-12-28T12:52:46.415Z,36.95
2022-12-28T12:55:22.488Z,37.14
2022-12-28T12:58:03.405Z,35.48
2022-12-28T13:00:50.848Z,35.14
2022-12-28T13:03:27.608Z,34.74
2022-12-28T13:05:55.217Z,36.20
2022-12-28T13:08:24.322Z,37.58
2022-12-28T13:10:51.535Z,35.66
2022-12-28T13:13:25.152Z,36.96
2022-12-28T13:15:52.828Z,35.58
2022-12-28T13:21:12.500Z,36.71
2022-12-28T13:23:44.228Z,35.81
2022-12-28T13:26:12.971Z,35.57
2022-12-28T13:28:44.597Z,35.31
2022-12-28T13:31:22.341Z,35.28
2022-12-28T13:33:56.651Z,35.09
2022-12-28T13:36:24.121Z,35.26
2022-12-28T13:39:26.748Z,35.57
2022-12-28T13:41:54.772Z,36.25
2022-12-28T13:44:54.181Z,36.64
2022-12-28T13:47:23.340Z,36.56
2022-12-28T13:50:04.392Z,36.46
2022-12-28T13:52:36.487Z,36.43
2022-12-28T13:55:05.964Z,34.32
2022-12-28T13:57:46.697Z,34.68
2022-12-28T14:00:18.849Z,36.32
2022-12-28T14:02:46.453Z,34.06
2022-12-28T14:05:20.894Z,35.14
2022-12-28T14:07:48.676Z,35.02
2022-12-28T14:10:16.057Z,35.04
2022-12-28T14:12:43.481Z,35.57
2022-12-28T14:15:11.429Z,34.30
2022-12-28T14:17:38.625Z,35.48
2022-12-28T14:20:06.127Z,35.45
2022-12-28T14:22:37.077Z,37.23
2022-12-28T14:25:04.249Z,36.73
2022-12-28T14:27:34.068Z,37.18
2022-12-28T14:30:04.759Z,37.20
2022-12-28T14:32:32.320Z,36.52
2022-12-28T14:35:02.388Z,36.93
2022-12-28T14:37:39.128Z,38.46
2022-12-28T14:40:06.952Z,40.13
2022-12-28T14:42:35.410Z,38.95
2022-12-28T14:45:21.150Z,39.09
2022-12-28T14:47:54.024Z,38.80
2022-12-28T14:50:23.316Z,37.57
2022-12-28T14:52:51.947Z,38.23
2022-12-28T14:55:28.374Z,37.74
2022-12-28T14:57:57.634Z,38.03
2022-12-28T15:00:26.622Z,38.36
2022-12-28T15:02:54.270Z,37.86
2022-12-28T15:05:38.626Z,36.34
2022-12-28T15:08:06.191Z,37.21
2022-12-28T15:10:35.592Z,37.20
2022-12-28T15:13:02.742Z,37.25
2022-12-28T15:15:30.002Z,37.51
2022-12-28T15:17:57.471Z,37.28
2022-12-28T15:20:24.677Z,37.44
2022-12-28T15:22:51.888Z,37.39
2022-12-28T15:25:19.400Z,37.26
2022-12-28T15:27:50.749Z,36.88
2022-12-28T15:30:21.606Z,36.87
2022-12-28T15:32:51.795Z,37.14
2022-12-28T15:35:19.057Z,37.08
2022-12-28T15:37:46.713Z,37.01
2022-12-28T15:40:14.315Z,37.10
2022-12-28T15:42:43.658Z,37.15
2022-12-28T15:45:10.914Z,37.85
2022-12-28T15:47:38.400Z,37.93
2022-12-28T15:50:05.641Z,37.67
2022-12-28T15:52:33.107Z,37.81
2022-12-28T15:55:00.607Z,38.11
2022-12-28T15:57:28.010Z,38.42
2022-12-28T15:59:55.801Z,38.20
2022-12-28T16:02:23.405Z,38.53
2022-12-28T16:04:51.074Z,38.58
2022-12-28T16:07:19.316Z,39.63
2022-12-28T16:09:47.165Z,38.85
2022-12-28T16:12:17.467Z,38.82
2022-12-28T16:14:46.005Z,39.16
2022-12-28T16:17:13.313Z,39.22
2022-12-28T16:19:41.926Z,38.58
2022-12-28T16:22:09.290Z,38.90
2022-12-28T16:24:36.555Z,39.05
2022-12-28T16:27:04.438Z,39.74
2022-12-28T16:29:31.800Z,39.72
2022-12-28T16:31:59.676Z,39.11
2022-12-28T16:34:28.351Z,38.60
2022-12-28T16:36:58.298Z,36.88
2022-12-28T16:39:26.293Z,38.17
2022-12-28T16:41:54.073Z,38.11
2022-12-28T16:44:22.189Z,39.01
2022-12-28T16:46:49.569Z,38.22
2022-12-28T16:49:17.104Z,38.56
2022-12-28T16:51:45.435Z,38.83
2022-12-28T16:54:15.750Z,39.30
2022-12-28T16:56:45.188Z,39.00
2022-12-28T16:59:13.483Z,37.57
2022-12-28T17:01:42.055Z,37.78
2022-12-28T17:04:09.957Z,38.34
2022-12-28T17:06:37.802Z,38.82
2022-12-28T17:09:05.348Z,38.55
2022-12-28T17:11:32.830Z,38.54
2022-12-28T17:14:00.895Z,38.55
2022-12-28T17:16:28.209Z,39.30
2022-12-28T17:18:55.846Z,40.12
2022-12-28T17:21:23.170Z,39.99
2022-12-28T17:23:50.384Z,39.42
2022-12-28T17:26:17.933Z,39.35
2022-12-28T17:28:45.296Z,38.94
2022-12-28T17:31:14.383Z,39.59
2022-12-28T17:33:49.326Z,39.30
2022-12-28T17:36:16.749Z,39.32
2022-12-28T17:38:44.203Z,39.23
2022-12-28T17:41:12.642Z,39.23
2022-12-28T17:43:39.984Z,39.54
2022-12-28T17:46:07.593Z,39.11
2022-12-28T17:48:34.836Z,38.94
2022-12-28T17:51:10.635Z,40.11
2022-12-28T17:53:39.159Z,40.06
2022-12-28T17:56:07.432Z,39.65
2022-12-28T17:58:34.641Z,40.47
2022-12-28T18:01:02.461Z,40.37
2022-12-28T18:03:33.941Z,40.07
2022-12-28T18:06:01.614Z,40.06
2022-12-28T18:08:29.201Z,41.22
2022-12-28T18:10:57.009Z,40.95
2022-12-28T18:13:24.412Z,40.82
2022-12-28T18:15:52.241Z,40.72
2022-12-28T18:18:19.912Z,39.83
2022-12-28T18:20:55.355Z,39.91
2022-12-28T18:23:22.955Z,39.81
2022-12-28T18:25:50.286Z,39.77
2022-12-28T18:28:18.240Z,39.41
2022-12-28T18:30:45.854Z,39.39
2022-12-28T18:33:13.368Z,40.09
2022-12-28T18:35:40.696Z,39.76
2022-12-28T18:38:08.520Z,39.66
2022-12-28T18:40:37.807Z,39.38
2022-12-28T18:43:05.719Z,39.77
2022-12-28T18:45:33.285Z,39.37
2022-12-28T18:48:00.721Z,39.96
2022-12-28T18:50:30.720Z,39.69
2022-12-28T18:52:58.287Z,39.31
2022-12-28T18:55:25.495Z,39.52
2022-12-28T18:57:52.786Z,39.34
2022-12-28T19:00:20.299Z,39.41
2022-12-28T19:02:51.235Z,39.47
2022-12-28T19:05:18.564Z,39.91
2022-12-28T19:07:49.527Z,39.69
2022-12-28T19:10:17.571Z,39.60
2022-12-28T19:12:44.745Z,40.36
2022-12-28T19:15:12.920Z,41.35
2022-12-28T19:17:40.392Z,40.39
2022-12-28T19:20:08.079Z,40.97
2022-12-28T19:22:36.149Z,41.27
2022-12-28T19:25:03.983Z,41.04
2022-12-28T19:27:31.590Z,40.90
2022-12-28T19:30:00.122Z,40.99
2022-12-28T19:32:27.613Z,40.23
2022-12-28T19:34:55.357Z,40.47
2022-12-28T19:37:25.928Z,40.50
2022-12-28T19:39:57.646Z,40.10
2022-12-28T19:42:25.557Z,39.76
2022-12-28T19:44:53.985Z,39.84
2022-12-28T19:47:21.819Z,40.63
2022-12-28T19:49:51.925Z,40.35
2022-12-28T19:52:19.456Z,40.70
2022-12-28T19:54:47.260Z,40.39
2022-12-28T19:57:14.843Z,39.84
2022-12-28T19:59:42.260Z,40.05
2022-12-28T20:02:10.298Z,40.26
2022-12-28T20:04:39.362Z,39.88
2022-12-28T20:07:06.953Z,40.11
2022-12-28T20:09:35.141Z,39.91
2022-12-28T20:12:03.284Z,39.21
2022-12-28T20:14:30.556Z,39.51
2022-12-28T20:16:59.420Z,39.85
2022-12-28T20:19:27.079Z,40.04
2022-12-28T20:21:54.978Z,40.19
2022-12-28T20:24:22.456Z,39.65
2022-12-28T20:26:51.491Z,39.44
2022-12-28T20:29:20.929Z,39.63
2022-12-28T20:31:50.047Z,39.80
2022-12-28T20:34:18.025Z,40.00
2022-12-28T20:36:46.558Z,39.84
2022-12-28T20:39:14.723Z,41.18
2022-12-28T20:42:01.534Z,40.92
2022-12-28T20:44:32.411Z,40.80
2022-12-28T20:47:01.092Z,41.64
2022-12-28T20:49:46.674Z,40.81
2022-12-28T20:52:14.242Z,40.67
2022-12-28T20:54:41.927Z,41.16
2022-12-28T20:57:09.189Z,41.40
2022-12-28T20:59:36.879Z,41.71
2022-12-28T21:02:04.458Z,42.00
2022-12-28T21:04:31.792Z,41.47
2022-12-28T21:07:00.020Z,41.06
2022-12-28T21:09:28.777Z,41.07
2022-12-28T21:11:56.345Z,41.09
2022-12-28T21:14:23.848Z,41.12
2022-12-28T21:16:51.307Z,40.78
2022-12-28T21:19:18.781Z,40.75
2022-12-28T21:21:48.397Z,40.45
2022-12-28T21:24:15.831Z,40.55
2022-12-28T21:26:43.100Z,40.79
2022-12-28T21:29:10.913Z,40.91
2022-12-28T21:31:38.301Z,40.70
2022-12-28T21:34:06.639Z,40.45
2022-12-28T21:36:55.744Z,40.63
2022-12-28T21:39:24.493Z,40.88
2022-12-28T21:41:53.174Z,40.81
2022-12-28T21:44:21.548Z,40.87
2022-12-28T21:47:02.682Z,40.82
2022-12-28T21:49:58.904Z,41.04
2022-12-28T21:52:32.360Z,40.91
2022-12-28T21:55:25.275Z,40.94
2022-12-28T21:57:54.171Z,40.96
2022-12-28T22:00:40.323Z,40.39
2022-12-28T22:03:35.603Z,40.80
2022-12-28T22:06:02.779Z,40.41
2022-12-28T22:08:50.319Z,40.80
2022-12-28T22:11:36.605Z,41.13
2022-12-28T22:14:04.427Z,41.22
2022-12-28T22:16:32.952Z,41.61
2022-12-28T22:19:02.705Z,42.00
2022-12-28T22:21:31.876Z,41.75
2022-12-28T22:23:59.140Z,41.60
2022-12-28T22:26:26.320Z,41.57
2022-12-28T22:28:53.774Z,41.54
2022-12-28T22:31:21.003Z,41.43
2022-12-28T22:33:48.207Z,41.69
2022-12-28T22:36:16.930Z,41.21
2022-12-28T22:38:44.290Z,41.40
2022-12-28T22:41:11.520Z,41.44
2022-12-28T22:43:42.001Z,40.93
2022-12-28T22:46:10.313Z,41.06
2022-12-28T22:48:37.792Z,40.65
2022-12-28T22:51:06.010Z,40.44
2022-12-28T22:53:33.900Z,40.50
2022-12-28T22:56:01.796Z,40.53
2022-12-28T22:58:29.410Z,40.68
2022-12-28T23:01:06.466Z,40.99
2022-12-28T23:03:34.432Z,41.03
2022-12-28T23:06:01.703Z,41.08
2022-12-28T23:08:28.868Z,41.40
2022-12-28T23:10:57.235Z,41.04
2022-12-28T23:13:24.501Z,41.19
2022-12-28T23:15:55.159Z,41.20
2022-12-28T23:18:41.668Z,40.82
2022-12-28T23:21:38.566Z,41.53
2022-12-28T23:24:24.732Z,41.32
2022-12-28T23:27:10.825Z,41.04
2022-12-28T23:29:38.291Z,41.13
2022-12-28T23:32:05.439Z,41.19
2022-12-28T23:34:32.637Z,41.22
2022-12-28T23:37:00.109Z,41.24
2022-12-28T23:39:27.332Z,41.76
2022-12-28T23:41:54.925Z,41.39
2022-12-28T23:44:23.213Z,41.28
2022-12-28T23:46:55.223Z,41.08
2022-12-28T23:49:25.947Z,41.49
2022-12-28T23:51:53.128Z,41.47
2022-12-28T23:54:20.452Z,40.83
2022-12-28T23:56:48.894Z,40.95
2022-12-28T23:59:16.077Z,40.82
